Alt de Bucabarones, Puerto Rico
Current Conditions -  °F | °C
As of 9:56 AM on Saturday 27 Dec 2014 (Local Time) from TJSJ Reporting Station
Scattered Clouds Scattered Clouds  
Wind Chill: 27°   Ceiling: Unl
Heat Index: 28°   Visibility: 10mi
Dew Point: 21°   Wind: 8mph
Humidity: 69%   Direction: 60°ENE
Pressure: 30.13"   Gusts: NA
Location:  18.3893°N, 66.2481°W
Report Text: TJSJ 271356Z 06007KT 10SM FEW032 SCT042 27/21 A3013 RMK AO2 SLP200 T02670206
Loading
Personal Weather Stations






























Interactive Weather Map New forecast layout! Learn more

10-Day Weather Forecast

Advertisements
Track Severe Weather on mobile